Time;durP1;ratioP1;P1;durP2;ratioP2;P2;SDS_P1;SDS_P2;PMS_P1;PMS_P2;Temp;Humidity;BMP_temperature;BMP_pressure;BME280_temperature;BME280_humidity;BME280_pressure;Samples;Min_cycle;Max_cycle;Signal;HPM_P1;HPM_P2
2023/05/10 00:00:59;;;;;;;6.27;3.77;;;;;;;;;;770739;183;830830;-69
2023/05/10 00:03:25;;;;;;;5.80;3.97;;;;;;;;;;756374;181;941723;-70
2023/05/10 00:05:51;;;;;;;5.32;3.58;;;;;;;;;;767713;180;890151;-69
2023/05/10 00:08:16;;;;;;;5.60;3.83;;;;;;;;;;757465;183;913060;-69
2023/05/10 00:10:42;;;;;;;5.80;4.10;;;;;;;;;;765020;181;919900;-69
2023/05/10 00:13:08;;;;;;;5.20;3.77;;;;;;;;;;764450;181;921673;-68
2023/05/10 00:15:34;;;;;;;5.57;3.10;;;;;;;;;;761186;181;916870;-69
2023/05/10 00:18:00;;;;;;;8.67;4.43;;;;;;;;;;765624;181;813948;-69
2023/05/10 00:20:26;;;;;;;5.77;3.70;;;;;;;;;;762346;180;820598;-69
2023/05/10 00:22:51;;;;;;;4.60;3.50;;;;;;;;;;761081;181;816941;-70
2023/05/10 00:25:17;;;;;;;6.37;3.23;;;;;;;;;;767313;181;935120;-70
2023/05/10 00:27:43;;;;;;;6.10;4.07;;;;;;;;;;771600;179;917098;-69
2023/05/10 00:30:09;;;;;;;5.57;4.23;;;;;;;;;;764763;180;911609;-69
2023/05/10 00:32:35;;;;;;;4.80;3.53;;;;;;;;;;745296;189;918774;-69
2023/05/10 00:35:01;;;;;;;5.87;3.93;;;;;;;;;;743102;186;923293;-69
2023/05/10 00:37:27;;;;;;;5.80;3.42;;;;;;;;;;742261;188;816752;-69
2023/05/10 00:39:53;;;;;;;5.13;3.30;;;;;;;;;;750415;186;816111;-70
2023/05/10 00:42:18;;;;;;;9.43;4.00;;;;;;;;;;769703;181;816732;-69
2023/05/10 00:44:44;;;;;;;6.90;3.50;;;;;;;;;;756243;183;812503;-69
2023/05/10 00:47:11;;;;;;;5.40;3.77;;;;;;;;;;763904;180;913092;-70
2023/05/10 00:49:36;;;;;;;4.93;3.20;;;;;;;;;;763762;180;867387;-70
2023/05/10 00:52:02;;;;;;;5.80;3.87;;;;;;;;;;767994;181;905414;-69
2023/05/10 00:54:28;;;;;;;8.50;4.37;;;;;;;;;;756026;183;919757;-69
2023/05/10 00:56:54;;;;;;;5.77;3.33;;;;;;;;;;760871;180;918114;-69
2023/05/10 00:59:19;;;;;;;4.83;3.17;;;;;;;;;;761143;180;1021564;-69
2023/05/10 01:01:45;;;;;;;6.80;3.90;;;;;;;;;;764929;180;918830;-69
2023/05/10 01:04:12;;;;;;;4.47;3.40;;;;;;;;;;761995;181;1018228;-70
2023/05/10 01:06:37;;;;;;;5.53;3.50;;;;;;;;;;771785;179;918634;-69
2023/05/10 01:09:03;;;;;;;6.47;4.17;;;;;;;;;;764884;181;919612;-69
2023/05/10 01:11:29;;;;;;;7.17;3.50;;;;;;;;;;766327;177;915950;-70
2023/05/10 01:13:55;;;;;;;6.00;3.53;;;;;;;;;;764734;183;913283;-69
2023/05/10 01:16:21;;;;;;;5.30;3.00;;;;;;;;;;761692;181;923814;-69
2023/05/10 01:18:47;;;;;;;5.00;3.30;;;;;;;;;;763784;181;922935;-69
2023/05/10 01:21:16;;;;;;;5.40;3.40;;;;;;;;;;762343;183;917508;-69
2023/05/10 01:23:42;;;;;;;5.93;3.60;;;;;;;;;;751726;181;919802;-69
2023/05/10 01:26:14;;;;;;;5.50;3.70;;;;;;;;;;763412;181;919577;-68
2023/05/10 01:28:46;;;;;;;5.77;3.63;;;;;;;;;;762691;181;917786;-69
2023/05/10 01:31:15;;;;;;;5.23;3.90;;;;;;;;;;770935;181;814651;-69
2023/05/10 01:33:43;;;;;;;4.60;3.47;;;;;;;;;;771445;181;916551;-69
2023/05/10 01:36:12;;;;;;;6.17;3.93;;;;;;;;;;756425;184;916977;-69
2023/05/10 01:38:42;;;;;;;6.55;4.20;;;;;;;;;;750944;184;916453;-69
2023/05/10 01:41:18;;;;;;;5.53;3.47;;;;;;;;;;758124;181;920686;-70
2023/05/10 01:43:44;;;;;;;5.10;3.30;;;;;;;;;;772179;183;920329;-69
2023/05/10 01:46:10;;;;;;;5.10;3.77;;;;;;;;;;757370;183;919314;-69
2023/05/10 01:48:36;;;;;;;5.83;4.67;;;;;;;;;;764784;181;919129;-69
2023/05/10 01:51:01;;;;;;;5.43;3.53;;;;;;;;;;772047;181;868514;-69
2023/05/10 01:53:27;;;;;;;4.70;3.47;;;;;;;;;;763490;183;916622;-69
2023/05/10 01:55:53;;;;;;;5.40;3.10;;;;;;;;;;758032;183;939978;-69
2023/05/10 01:58:22;;;;;;;4.60;3.60;;;;;;;;;;766033;181;918123;-70
2023/05/10 02:00:48;;;;;;;7.33;3.37;;;;;;;;;;767679;180;817562;-69
2023/05/10 02:03:13;;;;;;;5.50;3.60;;;;;;;;;;765569;180;924394;-68
2023/05/10 02:05:39;;;;;;;4.30;3.00;;;;;;;;;;762175;183;916004;-69
2023/05/10 02:08:05;;;;;;;5.40;3.60;;;;;;;;;;751132;187;918577;-69
2023/05/10 02:10:31;;;;;;;4.93;3.57;;;;;;;;;;747614;184;917608;-69
2023/05/10 02:12:57;;;;;;;5.40;3.93;;;;;;;;;;757829;183;913982;-69
2023/05/10 02:15:23;;;;;;;5.60;3.60;;;;;;;;;;762545;181;918077;-70
2023/05/10 02:17:49;;;;;;;4.33;3.33;;;;;;;;;;765404;183;909667;-69
2023/05/10 02:20:15;;;;;;;5.47;3.90;;;;;;;;;;751562;182;913417;-69
2023/05/10 02:22:40;;;;;;;5.00;3.80;;;;;;;;;;763598;181;919742;-69
2023/05/10 02:25:06;;;;;;;7.00;4.07;;;;;;;;;;764470;183;845685;-69
2023/05/10 02:27:32;;;;;;;6.07;4.03;;;;;;;;;;755756;181;910571;-69
2023/05/10 02:29:58;;;;;;;7.23;3.80;;;;;;;;;;761920;181;919183;-69
2023/05/10 02:32:24;;;;;;;6.17;4.03;;;;;;;;;;772605;172;951650;-70
2023/05/10 02:34:51;;;;;;;9.10;4.20;;;;;;;;;;766031;180;919253;-69
2023/05/10 02:37:18;;;;;;;5.40;3.73;;;;;;;;;;759745;183;914558;-69
2023/05/10 02:39:43;;;;;;;7.40;4.00;;;;;;;;;;761684;181;901916;-70
2023/05/10 02:42:08;;;;;;;4.27;3.03;;;;;;;;;;771395;180;815341;-69
2023/05/10 02:44:34;;;;;;;7.93;4.53;;;;;;;;;;763020;183;915315;-68
2023/05/10 02:47:00;;;;;;;7.53;3.50;;;;;;;;;;763982;180;918966;-69
2023/05/10 02:49:26;;;;;;;4.30;3.10;;;;;;;;;;747316;181;919918;-69
2023/05/10 02:51:52;;;;;;;5.80;3.90;;;;;;;;;;752582;183;912492;-69
2023/05/10 02:54:18;;;;;;;4.77;3.17;;;;;;;;;;752808;183;815724;-69
2023/05/10 02:56:44;;;;;;;6.83;4.00;;;;;;;;;;768649;183;912224;-68
2023/05/10 02:59:10;;;;;;;3.97;3.30;;;;;;;;;;767970;182;879498;-69
2023/05/10 03:01:36;;;;;;;4.73;3.33;;;;;;;;;;767656;182;915731;-69
2023/05/10 03:04:02;;;;;;;4.30;3.13;;;;;;;;;;773077;182;918235;-68
2023/05/10 03:06:28;;;;;;;5.60;3.97;;;;;;;;;;758524;182;942338;-69
2023/05/10 03:08:53;;;;;;;5.53;4.33;;;;;;;;;;761223;181;924329;-69
2023/05/10 03:11:26;;;;;;;7.73;4.03;;;;;;;;;;767556;181;938057;-69
2023/05/10 03:13:55;;;;;;;6.80;3.97;;;;;;;;;;768322;180;919003;-68
2023/05/10 03:16:21;;;;;;;6.20;4.30;;;;;;;;;;765666;180;919098;-68
2023/05/10 03:18:48;;;;;;;4.80;3.60;;;;;;;;;;760624;181;917694;-69
2023/05/10 03:21:15;;;;;;;5.57;3.83;;;;;;;;;;763098;181;969229;-68
2023/05/10 03:23:41;;;;;;;5.50;3.50;;;;;;;;;;767630;181;918400;-68
2023/05/10 03:26:07;;;;;;;4.57;3.33;;;;;;;;;;774835;175;815743;-69
2023/05/10 03:28:32;;;;;;;7.03;4.60;;;;;;;;;;763387;180;824437;-69
2023/05/10 03:30:58;;;;;;;4.63;3.63;;;;;;;;;;767969;180;840524;-69
2023/05/10 03:33:24;;;;;;;6.17;4.70;;;;;;;;;;764779;180;919029;-68
2023/05/10 03:35:50;;;;;;;8.40;5.20;;;;;;;;;;761733;181;919369;-68
2023/05/10 03:38:16;;;;;;;7.37;5.27;;;;;;;;;;761100;184;913438;-68
2023/05/10 03:40:42;;;;;;;6.80;4.97;;;;;;;;;;758265;184;815688;-69
2023/05/10 03:43:07;;;;;;;7.90;6.10;;;;;;;;;;764583;181;816350;-69
2023/05/10 03:45:33;;;;;;;7.00;4.97;;;;;;;;;;765815;181;917715;-69
2023/05/10 03:47:59;;;;;;;5.40;4.10;;;;;;;;;;765412;183;867611;-69
2023/05/10 03:50:26;;;;;;;8.63;3.93;;;;;;;;;;759416;183;918412;-69
2023/05/10 03:52:51;;;;;;;7.40;5.20;;;;;;;;;;760446;181;921099;-69
2023/05/10 03:55:17;;;;;;;6.67;4.40;;;;;;;;;;769353;181;919960;-69
2023/05/10 03:57:42;;;;;;;7.70;5.07;;;;;;;;;;761743;181;935742;-69
2023/05/10 04:00:09;;;;;;;6.90;5.17;;;;;;;;;;763496;183;918790;-69
2023/05/10 04:02:35;;;;;;;10.60;4.57;;;;;;;;;;770482;182;916381;-69
2023/05/10 04:05:01;;;;;;;9.77;4.97;;;;;;;;;;765460;183;936874;-69
2023/05/10 04:07:27;;;;;;;6.12;4.45;;;;;;;;;;763690;181;910453;-69
2023/05/10 04:09:53;;;;;;;6.30;4.20;;;;;;;;;;757294;184;816860;-70
2023/05/10 04:12:19;;;;;;;5.60;4.27;;;;;;;;;;769693;182;815417;-69
2023/05/10 04:14:44;;;;;;;6.10;4.27;;;;;;;;;;755805;182;915972;-69
2023/05/10 04:17:10;;;;;;;7.60;4.43;;;;;;;;;;762109;180;818734;-70
2023/05/10 04:19:36;;;;;;;5.20;4.10;;;;;;;;;;772251;180;905542;-69
2023/05/10 04:22:02;;;;;;;5.27;3.80;;;;;;;;;;764413;180;915039;-70
2023/05/10 04:24:28;;;;;;;6.77;4.03;;;;;;;;;;758156;180;918755;-70
2023/05/10 04:26:54;;;;;;;5.03;4.10;;;;;;;;;;767019;180;935564;-69
2023/05/10 04:29:20;;;;;;;7.70;3.83;;;;;;;;;;765104;180;915842;-69
2023/05/10 04:31:45;;;;;;;6.40;3.70;;;;;;;;;;766124;180;842777;-70
2023/05/10 04:34:11;;;;;;;5.68;4.10;;;;;;;;;;757168;181;811667;-71
2023/05/10 04:36:37;;;;;;;6.47;3.80;;;;;;;;;;772345;182;912644;-70
2023/05/10 04:39:03;;;;;;;6.17;4.00;;;;;;;;;;759504;181;815694;-70
2023/05/10 04:41:29;;;;;;;4.73;3.80;;;;;;;;;;759801;181;858382;-70
2023/05/10 04:43:55;;;;;;;6.47;4.27;;;;;;;;;;741447;189;817695;-71
2023/05/10 04:46:20;;;;;;;6.83;4.17;;;;;;;;;;747476;186;1020247;-70
2023/05/10 04:48:46;;;;;;;6.10;3.47;;;;;;;;;;764337;180;909127;-70
2023/05/10 04:51:12;;;;;;;4.17;3.00;;;;;;;;;;763649;181;815522;-70
2023/05/10 04:53:38;;;;;;;10.03;4.33;;;;;;;;;;741122;186;913874;-70
2023/05/10 04:56:04;;;;;;;5.40;3.20;;;;;;;;;;753150;183;919701;-70
2023/05/10 04:58:30;;;;;;;6.50;3.73;;;;;;;;;;763019;183;916351;-70
2023/05/10 05:00:56;;;;;;;7.30;4.83;;;;;;;;;;754170;181;918212;-70
2023/05/10 05:03:22;;;;;;;5.10;3.57;;;;;;;;;;758458;181;919926;-71
2023/05/10 05:05:48;;;;;;;6.17;3.50;;;;;;;;;;744622;185;918733;-71
2023/05/10 05:08:13;;;;;;;6.90;3.83;;;;;;;;;;768641;180;917704;-70
2023/05/10 05:10:39;;;;;;;5.53;3.60;;;;;;;;;;756098;181;918432;-71
2023/05/10 05:13:06;;;;;;;8.97;3.93;;;;;;;;;;756077;181;917888;-71
2023/05/10 05:15:31;;;;;;;3.50;2.60;;;;;;;;;;763486;181;914398;-71
2023/05/10 05:17:57;;;;;;;7.37;5.37;;;;;;;;;;762689;180;1019880;-71
2023/05/10 05:20:23;;;;;;;6.63;3.20;;;;;;;;;;764412;181;920620;-70
2023/05/10 05:22:49;;;;;;;5.37;3.30;;;;;;;;;;756534;181;807662;-71
2023/05/10 05:25:15;;;;;;;5.00;3.40;;;;;;;;;;746282;185;834304;-71
2023/05/10 05:27:41;;;;;;;4.90;3.50;;;;;;;;;;765266;180;910645;-70
2023/05/10 05:30:07;;;;;;;4.60;2.70;;;;;;;;;;760808;180;828969;-72
2023/05/10 05:32:32;;;;;;;4.22;2.87;;;;;;;;;;753484;186;924900;-70
2023/05/10 05:34:59;;;;;;;4.80;3.23;;;;;;;;;;758168;182;918009;-71
2023/05/10 05:37:24;;;;;;;5.57;3.33;;;;;;;;;;761544;183;917205;-71
2023/05/10 05:39:50;;;;;;;4.50;3.30;;;;;;;;;;768903;180;919214;-70
2023/05/10 05:42:18;;;;;;;12.63;4.17;;;;;;;;;;755691;181;1062119;-71
2023/05/10 05:44:42;;;;;;;4.13;3.00;;;;;;;;;;764253;180;825346;-71
2023/05/10 05:47:08;;;;;;;4.20;2.57;;;;;;;;;;763894;183;877091;-70
2023/05/10 05:49:33;;;;;;;4.60;3.07;;;;;;;;;;741077;187;919115;-71
2023/05/10 05:52:00;;;;;;;3.70;2.60;;;;;;;;;;761078;183;920646;-70
2023/05/10 05:54:26;;;;;;;6.57;3.10;;;;;;;;;;760721;181;917972;-72
2023/05/10 05:56:52;;;;;;;4.20;3.03;;;;;;;;;;768419;182;917924;-70
2023/05/10 05:59:18;;;;;;;4.50;3.30;;;;;;;;;;759768;182;954424;-70
2023/05/10 06:01:43;;;;;;;6.23;2.80;;;;;;;;;;758869;180;817286;-71
2023/05/10 06:04:10;;;;;;;5.70;3.00;;;;;;;;;;768355;180;916334;-70
2023/05/10 06:06:36;;;;;;;5.43;3.33;;;;;;;;;;761841;181;917427;-70
2023/05/10 06:09:01;;;;;;;5.05;3.20;;;;;;;;;;762445;181;923060;-70
2023/05/10 06:11:27;;;;;;;6.20;3.53;;;;;;;;;;764409;181;816208;-70
2023/05/10 06:13:53;;;;;;;5.63;3.40;;;;;;;;;;758752;181;809399;-70
2023/05/10 06:16:19;;;;;;;6.17;3.40;;;;;;;;;;757791;181;1017778;-69
2023/05/10 06:18:45;;;;;;;5.90;3.53;;;;;;;;;;772592;181;720047;-71
2023/05/10 06:21:11;;;;;;;5.37;3.57;;;;;;;;;;764458;183;911964;-70
2023/05/10 06:23:36;;;;;;;6.63;3.50;;;;;;;;;;756483;181;813434;-70
2023/05/10 06:26:03;;;;;;;4.10;3.00;;;;;;;;;;763586;180;917816;-70
2023/05/10 06:28:28;;;;;;;6.23;3.70;;;;;;;;;;763070;181;817383;-70
2023/05/10 06:30:54;;;;;;;8.40;4.30;;;;;;;;;;763558;180;917691;-70
2023/05/10 06:33:20;;;;;;;5.77;3.80;;;;;;;;;;758046;181;915864;-72
2023/05/10 06:35:46;;;;;;;7.13;3.90;;;;;;;;;;763915;181;886396;-70
2023/05/10 06:38:11;;;;;;;7.23;4.07;;;;;;;;;;759298;180;875518;-69
2023/05/10 06:40:37;;;;;;;6.63;3.40;;;;;;;;;;761457;180;914018;-70
2023/05/10 06:43:03;;;;;;;6.83;3.90;;;;;;;;;;765185;182;917845;-70
2023/05/10 06:45:29;;;;;;;6.27;3.80;;;;;;;;;;756462;180;918436;-70
2023/05/10 06:47:55;;;;;;;5.77;4.47;;;;;;;;;;763514;181;917455;-70
2023/05/10 06:50:21;;;;;;;6.80;3.83;;;;;;;;;;757045;180;918483;-69
2023/05/10 06:52:47;;;;;;;5.70;3.63;;;;;;;;;;756972;180;918491;-69
2023/05/10 06:55:12;;;;;;;7.20;4.10;;;;;;;;;;759309;183;918666;-69
2023/05/10 06:57:38;;;;;;;5.40;3.60;;;;;;;;;;761797;182;919592;-70
2023/05/10 07:00:05;;;;;;;5.47;3.37;;;;;;;;;;766842;182;819246;-69
2023/05/10 07:02:31;;;;;;;5.70;3.57;;;;;;;;;;759572;181;814793;-71
2023/05/10 07:04:57;;;;;;;5.73;3.90;;;;;;;;;;730203;188;918690;-71
2023/05/10 07:07:22;;;;;;;6.62;3.70;;;;;;;;;;757435;182;919685;-70
2023/05/10 07:09:49;;;;;;;6.43;3.27;;;;;;;;;;763956;181;916147;-70
2023/05/10 07:12:14;;;;;;;9.10;3.63;;;;;;;;;;757061;181;914287;-71
2023/05/10 07:14:40;;;;;;;5.10;3.20;;;;;;;;;;765758;181;923071;-71
2023/05/10 07:17:06;;;;;;;4.13;3.27;;;;;;;;;;775585;177;1008504;-71
2023/05/10 07:19:32;;;;;;;7.27;3.30;;;;;;;;;;759691;183;922521;-69
2023/05/10 07:21:57;;;;;;;3.55;2.37;;;;;;;;;;760140;181;1229085;-69
2023/05/10 07:24:24;;;;;;;5.03;3.03;;;;;;;;;;763545;181;790372;-69
2023/05/10 07:26:49;;;;;;;5.00;3.43;;;;;;;;;;757830;183;629024;-72
2023/05/10 07:29:15;;;;;;;3.83;2.80;;;;;;;;;;763583;181;816642;-71
2023/05/10 07:31:42;;;;;;;5.20;3.10;;;;;;;;;;768395;181;918640;-70
2023/05/10 07:34:07;;;;;;;8.23;3.43;;;;;;;;;;764760;181;815206;-70
2023/05/10 07:36:32;;;;;;;4.70;3.57;;;;;;;;;;759992;181;884299;-71
2023/05/10 07:38:58;;;;;;;5.17;3.03;;;;;;;;;;771273;180;918372;-71
2023/05/10 07:41:24;;;;;;;3.67;2.60;;;;;;;;;;758219;181;919284;-71
2023/05/10 07:43:50;;;;;;;6.15;3.67;;;;;;;;;;762746;180;909079;-70
2023/05/10 07:46:16;;;;;;;4.07;3.33;;;;;;;;;;753254;183;817102;-71
2023/05/10 07:48:42;;;;;;;4.60;2.73;;;;;;;;;;767646;182;876582;-71
2023/05/10 07:51:09;;;;;;;4.20;2.80;;;;;;;;;;760932;182;819824;-71
2023/05/10 07:53:33;;;;;;;6.20;3.27;;;;;;;;;;726942;192;878254;-71
2023/05/10 07:55:59;;;;;;;4.30;3.17;;;;;;;;;;750265;186;922407;-71
2023/05/10 07:58:25;;;;;;;4.10;2.60;;;;;;;;;;750996;180;915974;-70
2023/05/10 08:00:51;;;;;;;4.07;3.17;;;;;;;;;;762527;180;916093;-71
2023/05/10 08:03:17;;;;;;;4.90;3.17;;;;;;;;;;769752;180;1023636;-71
2023/05/10 08:05:43;;;;;;;10.98;3.30;;;;;;;;;;762652;181;916364;-70
2023/05/10 08:08:09;;;;;;;4.17;2.80;;;;;;;;;;763304;181;919488;-70
2023/05/10 08:10:35;;;;;;;3.60;2.60;;;;;;;;;;766192;180;918901;-70
2023/05/10 08:13:00;;;;;;;4.17;2.80;;;;;;;;;;766652;181;918735;-70
2023/05/10 08:15:26;;;;;;;5.90;2.70;;;;;;;;;;750536;187;918472;-71
2023/05/10 08:17:52;;;;;;;3.87;2.70;;;;;;;;;;741502;187;930997;-70
2023/05/10 08:20:18;;;;;;;4.18;2.60;;;;;;;;;;771007;182;816160;-69
2023/05/10 08:22:44;;;;;;;4.63;2.70;;;;;;;;;;764510;180;956506;-68
2023/05/10 08:25:10;;;;;;;3.63;2.60;;;;;;;;;;763388;181;642028;-70
2023/05/10 08:27:35;;;;;;;3.70;2.13;;;;;;;;;;769842;183;978687;-71
2023/05/10 08:30:01;;;;;;;4.53;2.63;;;;;;;;;;772031;180;812348;-70
2023/05/10 08:32:27;;;;;;;3.73;2.43;;;;;;;;;;760426;183;816080;-69
2023/05/10 08:34:54;;;;;;;3.15;2.10;;;;;;;;;;760005;183;1018865;-71
2023/05/10 08:37:20;;;;;;;4.60;2.90;;;;;;;;;;758801;183;863915;-70
2023/05/10 08:39:47;;;;;;;7.70;2.23;;;;;;;;;;755323;182;970604;-69
2023/05/10 08:42:11;;;;;;;5.18;2.28;;;;;;;;;;749685;183;916058;-70
2023/05/10 08:44:37;;;;;;;3.37;2.20;;;;;;;;;;767716;182;916864;-69
2023/05/10 08:47:03;;;;;;;4.13;2.20;;;;;;;;;;758270;181;1018165;-70
2023/05/10 08:49:29;;;;;;;3.00;1.98;;;;;;;;;;757981;183;918268;-70
2023/05/10 08:51:55;;;;;;;4.13;2.30;;;;;;;;;;759359;181;920564;-69
2023/05/10 08:54:21;;;;;;;5.90;2.60;;;;;;;;;;760786;181;919474;-71
2023/05/10 08:56:47;;;;;;;3.70;2.47;;;;;;;;;;762796;180;919946;-69
2023/05/10 08:59:13;;;;;;;3.40;2.20;;;;;;;;;;769408;180;820366;-69
2023/05/10 09:01:38;;;;;;;4.77;2.27;;;;;;;;;;756280;183;918970;-71
2023/05/10 09:04:04;;;;;;;3.63;2.30;;;;;;;;;;763059;182;919732;-70
2023/05/10 09:06:31;;;;;;;3.40;2.47;;;;;;;;;;761881;183;920201;-69
2023/05/10 09:08:56;;;;;;;5.23;2.83;;;;;;;;;;764984;180;855855;-71
2023/05/10 09:11:22;;;;;;;3.13;1.97;;;;;;;;;;763306;180;917143;-69
2023/05/10 09:13:48;;;;;;;5.85;2.35;;;;;;;;;;762064;183;715502;-70
2023/05/10 09:16:13;;;;;;;3.70;2.43;;;;;;;;;;769731;182;918897;-71
2023/05/10 09:18:39;;;;;;;7.43;2.27;;;;;;;;;;762478;181;917446;-71
2023/05/10 09:21:05;;;;;;;4.00;2.80;;;;;;;;;;765462;180;918025;-70
2023/05/10 09:23:32;;;;;;;5.30;2.43;;;;;;;;;;762782;181;919037;-72
2023/05/10 09:26:04;;;;;;;3.13;2.17;;;;;;;;;;757842;181;885403;-71
2023/05/10 09:28:29;;;;;;;3.77;2.80;;;;;;;;;;762130;181;1112109;-70
2023/05/10 09:30:55;;;;;;;2.62;1.70;;;;;;;;;;761937;181;1227667;-72
2023/05/10 09:33:21;;;;;;;3.27;2.27;;;;;;;;;;770060;181;920050;-72
2023/05/10 09:35:46;;;;;;;3.00;2.20;;;;;;;;;;757841;181;1021637;-69
2023/05/10 09:38:12;;;;;;;3.35;2.37;;;;;;;;;;763404;180;917199;-71
2023/05/10 09:40:38;;;;;;;2.67;1.80;;;;;;;;;;766683;183;974089;-71
2023/05/10 09:43:05;;;;;;;4.10;2.17;;;;;;;;;;744265;186;915771;-71
2023/05/10 09:45:30;;;;;;;3.67;2.10;;;;;;;;;;755174;184;919689;-71
2023/05/10 09:47:56;;;;;;;3.10;2.17;;;;;;;;;;758875;184;934842;-70
2023/05/10 09:50:21;;;;;;;3.55;2.28;;;;;;;;;;772891;181;816331;-70
2023/05/10 09:52:47;;;;;;;3.43;2.00;;;;;;;;;;763852;181;1000314;-71
2023/05/10 09:55:13;;;;;;;3.37;2.43;;;;;;;;;;761680;181;918489;-71
2023/05/10 09:57:39;;;;;;;5.40;2.00;;;;;;;;;;764734;184;814258;-70
2023/05/10 10:00:06;;;;;;;2.93;2.13;;;;;;;;;;744553;186;913052;-68
2023/05/10 10:02:31;;;;;;;10.17;2.00;;;;;;;;;;764579;183;914456;-69
2023/05/10 10:04:57;;;;;;;3.20;1.50;;;;;;;;;;761775;183;813526;-71
2023/05/10 10:07:23;;;;;;;3.53;2.00;;;;;;;;;;765004;183;813656;-70
2023/05/10 10:09:49;;;;;;;4.13;1.90;;;;;;;;;;763644;180;916133;-70
2023/05/10 10:12:15;;;;;;;3.72;2.30;;;;;;;;;;761095;181;824059;-71
2023/05/10 10:14:41;;;;;;;3.07;1.70;;;;;;;;;;754201;186;819841;-71
2023/05/10 10:17:07;;;;;;;3.10;1.93;;;;;;;;;;744473;185;917126;-71
2023/05/10 10:19:34;;;;;;;5.27;2.23;;;;;;;;;;753220;183;919184;-71
2023/05/10 10:21:59;;;;;;;6.97;2.60;;;;;;;;;;768367;181;922837;-71
2023/05/10 10:24:25;;;;;;;3.50;1.95;;;;;;;;;;764905;180;916382;-69
2023/05/10 10:26:51;;;;;;;5.13;2.27;;;;;;;;;;759736;182;923787;-72
2023/05/10 10:29:18;;;;;;;3.50;2.20;;;;;;;;;;776255;178;903745;-71
2023/05/10 10:31:46;;;;;;;4.30;2.27;;;;;;;;;;771488;181;919086;-70
2023/05/10 10:34:17;;;;;;;5.20;2.10;;;;;;;;;;763105;181;918617;-71
2023/05/10 10:36:43;;;;;;;3.73;2.30;;;;;;;;;;757657;181;1123227;-70
2023/05/10 10:39:09;;;;;;;6.10;2.67;;;;;;;;;;763267;183;1022567;-70
2023/05/10 10:41:35;;;;;;;3.13;2.50;;;;;;;;;;757932;180;1024085;-71
2023/05/10 10:44:07;;;;;;;3.90;2.00;;;;;;;;;;759358;180;813694;-71
2023/05/10 10:46:32;;;;;;;3.80;2.47;;;;;;;;;;767326;180;920369;-71
2023/05/10 10:49:04;;;;;;;3.20;2.10;;;;;;;;;;752511;181;918016;-71
2023/05/10 10:51:31;;;;;;;3.50;2.20;;;;;;;;;;752550;183;815720;-71
2023/05/10 10:53:56;;;;;;;4.30;2.77;;;;;;;;;;759468;183;816993;-70
2023/05/10 10:56:23;;;;;;;6.03;2.03;;;;;;;;;;768464;180;919290;-70
2023/05/10 10:58:48;;;;;;;3.10;2.20;;;;;;;;;;760317;183;919260;-71
2023/05/10 11:01:13;;;;;;;3.37;2.17;;;;;;;;;;761490;183;918665;-71
2023/05/10 11:03:39;;;;;;;2.97;2.15;;;;;;;;;;761540;181;919645;-71
2023/05/10 11:06:05;;;;;;;3.60;2.40;;;;;;;;;;771409;183;919093;-70
2023/05/10 11:08:31;;;;;;;2.90;1.90;;;;;;;;;;760403;181;786098;-71
2023/05/10 11:11:07;;;;;;;3.37;1.97;;;;;;;;;;762252;181;918961;-72
2023/05/10 11:13:34;;;;;;;3.00;2.10;;;;;;;;;;766329;181;816721;-71
2023/05/10 11:16:00;;;;;;;3.20;2.20;;;;;;;;;;769107;183;919277;-70
2023/05/10 11:18:26;;;;;;;3.07;1.83;;;;;;;;;;755444;183;790341;-70
2023/05/10 11:20:51;;;;;;;3.47;2.80;;;;;;;;;;745245;186;918932;-72
2023/05/10 11:23:17;;;;;;;3.30;1.97;;;;;;;;;;770180;180;816032;-71
2023/05/10 11:25:44;;;;;;;3.07;1.80;;;;;;;;;;759708;180;919698;-72
2023/05/10 11:28:10;;;;;;;3.43;2.10;;;;;;;;;;755934;184;918193;-72
2023/05/10 11:30:35;;;;;;;4.70;2.47;;;;;;;;;;770851;181;627078;-70
2023/05/10 11:33:01;;;;;;;3.17;1.97;;;;;;;;;;760641;180;844918;-68
2023/05/10 11:35:27;;;;;;;3.00;1.90;;;;;;;;;;768132;180;912040;-70
2023/05/10 11:37:52;;;;;;;3.50;2.00;;;;;;;;;;762044;182;893341;-70
2023/05/10 11:40:18;;;;;;;6.33;2.50;;;;;;;;;;729883;190;915178;-71
2023/05/10 11:42:44;;;;;;;4.57;2.20;;;;;;;;;;740336;186;916124;-69
2023/05/10 11:45:10;;;;;;;3.20;2.27;;;;;;;;;;739394;188;899001;-71
2023/05/10 11:47:36;;;;;;;3.50;2.10;;;;;;;;;;754235;186;861996;-70
2023/05/10 11:50:02;;;;;;;3.67;2.77;;;;;;;;;;756182;183;916921;-70
2023/05/10 11:52:28;;;;;;;3.00;2.10;;;;;;;;;;761496;180;918114;-71
2023/05/10 11:54:54;;;;;;;3.67;2.20;;;;;;;;;;767431;181;919937;-69
2023/05/10 11:57:20;;;;;;;2.60;1.73;;;;;;;;;;758239;180;915005;-71
2023/05/10 11:59:46;;;;;;;3.20;2.10;;;;;;;;;;766003;180;891547;-70
2023/05/10 12:02:12;;;;;;;3.55;2.45;;;;;;;;;;766573;181;920308;-70
2023/05/10 12:04:38;;;;;;;4.77;2.17;;;;;;;;;;763110;181;918626;-71
2023/05/10 12:07:03;;;;;;;2.83;1.93;;;;;;;;;;757808;180;918362;-70
2023/05/10 12:09:29;;;;;;;6.20;2.30;;;;;;;;;;753247;181;914680;-70
2023/05/10 12:11:55;;;;;;;6.63;3.80;;;;;;;;;;762290;180;1010819;-70
2023/05/10 12:14:21;;;;;;;6.17;2.23;;;;;;;;;;755706;181;816978;-68
2023/05/10 12:16:47;;;;;;;3.30;2.10;;;;;;;;;;754974;181;919952;-70
2023/05/10 12:19:13;;;;;;;7.83;4.17;;;;;;;;;;770870;181;919145;-70
2023/05/10 12:21:41;;;;;;;4.40;2.30;;;;;;;;;;766628;181;998702;-70
2023/05/10 12:24:06;;;;;;;3.93;2.23;;;;;;;;;;765390;181;921561;-71
2023/05/10 12:26:31;;;;;;;3.30;1.60;;;;;;;;;;765714;181;917548;-70
2023/05/10 12:29:03;;;;;;;3.43;2.37;;;;;;;;;;760380;181;918515;-70
2023/05/10 12:31:29;;;;;;;3.70;2.10;;;;;;;;;;759496;181;918978;-71
2023/05/10 12:33:55;;;;;;;3.20;2.27;;;;;;;;;;766873;180;1022730;-69
2023/05/10 12:36:21;;;;;;;5.47;2.50;;;;;;;;;;759172;182;927460;-71
2023/05/10 12:38:47;;;;;;;3.73;2.13;;;;;;;;;;760577;182;882354;-69
2023/05/10 12:41:15;;;;;;;6.43;3.63;;;;;;;;;;755643;186;812430;-71
2023/05/10 12:43:42;;;;;;;4.10;2.60;;;;;;;;;;767726;180;853960;-71
2023/05/10 12:46:14;;;;;;;3.53;2.07;;;;;;;;;;766767;180;921878;-69
2023/05/10 12:48:40;;;;;;;7.80;2.03;;;;;;;;;;757053;181;817828;-71
2023/05/10 12:51:09;;;;;;;3.00;2.10;;;;;;;;;;766861;183;916458;-72
2023/05/10 12:53:32;;;;;;;3.23;2.00;;;;;;;;;;769251;181;637496;-72
2023/05/10 12:55:58;;;;;;;3.00;1.77;;;;;;;;;;762589;181;851408;-69
2023/05/10 12:58:24;;;;;;;3.20;2.10;;;;;;;;;;762059;180;888555;-71
2023/05/10 13:00:51;;;;;;;2.95;1.75;;;;;;;;;;771751;183;960126;-71
2023/05/10 13:03:16;;;;;;;10.33;2.20;;;;;;;;;;766106;182;918853;-71
2023/05/10 13:05:43;;;;;;;3.40;2.23;;;;;;;;;;766169;183;713156;-72
2023/05/10 13:08:08;;;;;;;3.97;2.40;;;;;;;;;;768824;181;918486;-72
2023/05/10 13:10:34;;;;;;;6.00;2.43;;;;;;;;;;769937;181;919262;-70
2023/05/10 13:13:00;;;;;;;4.23;2.30;;;;;;;;;;766024;181;906342;-72
2023/05/10 13:15:26;;;;;;;3.60;2.07;;;;;;;;;;768190;180;919744;-72
2023/05/10 13:17:52;;;;;;;5.33;1.93;;;;;;;;;;768616;182;716048;-72
2023/05/10 13:20:18;;;;;;;4.40;2.00;;;;;;;;;;761617;181;922623;-72
2023/05/10 13:22:44;;;;;;;3.27;1.83;;;;;;;;;;760102;183;815784;-72
2023/05/10 13:25:10;;;;;;;2.60;1.80;;;;;;;;;;768304;180;715962;-72
2023/05/10 13:27:35;;;;;;;3.50;2.00;;;;;;;;;;748285;186;919028;-73
2023/05/10 13:30:02;;;;;;;3.27;1.80;;;;;;;;;;735250;190;923125;-72
2023/05/10 13:32:27;;;;;;;7.03;1.60;;;;;;;;;;736230;189;990732;-71
2023/05/10 13:34:53;;;;;;;3.60;2.40;;;;;;;;;;772111;180;917084;-71
2023/05/10 13:37:19;;;;;;;4.20;2.40;;;;;;;;;;760922;181;935457;-72
2023/05/10 13:39:45;;;;;;;4.10;1.60;;;;;;;;;;764100;181;1004941;-71
2023/05/10 13:42:10;;;;;;;6.60;1.90;;;;;;;;;;756836;184;933249;-71
2023/05/10 13:44:38;;;;;;;5.03;2.13;;;;;;;;;;758683;182;918901;-73
2023/05/10 13:47:02;;;;;;;3.07;2.10;;;;;;;;;;764053;180;919347;-71
2023/05/10 13:49:28;;;;;;;4.10;2.40;;;;;;;;;;771073;180;821635;-71
2023/05/10 13:51:54;;;;;;;4.23;2.07;;;;;;;;;;768203;180;815116;-72
2023/05/10 13:54:21;;;;;;;4.10;1.93;;;;;;;;;;764075;180;919284;-72
2023/05/10 13:56:47;;;;;;;8.50;2.57;;;;;;;;;;760209;181;899374;-71
2023/05/10 13:59:12;;;;;;;5.40;2.30;;;;;;;;;;779824;178;1017242;-71
2023/05/10 14:01:38;;;;;;;4.78;2.12;;;;;;;;;;768943;182;813140;-72
2023/05/10 14:04:03;;;;;;;4.23;2.03;;;;;;;;;;765040;183;916427;-73
2023/05/10 14:06:29;;;;;;;4.90;2.30;;;;;;;;;;764491;182;817826;-72
2023/05/10 14:08:55;;;;;;;2.97;1.90;;;;;;;;;;756853;183;833991;-72
2023/05/10 14:11:21;;;;;;;2.80;2.08;;;;;;;;;;742563;186;918998;-72
2023/05/10 14:13:47;;;;;;;2.73;1.83;;;;;;;;;;769916;183;649167;-72
2023/05/10 14:16:14;;;;;;;9.27;2.28;;;;;;;;;;761807;181;694210;-72
2023/05/10 14:18:38;;;;;;;8.50;2.10;;;;;;;;;;757496;180;916448;-71
2023/05/10 14:21:04;;;;;;;3.37;1.90;;;;;;;;;;762459;181;918294;-73